sensor_id;sensor_type;location;lat;lon;timestamp;pressure;altitude;pressure_sealevel;temperature;humidity
16580;BME280;8402;51.466;6.806;2023-05-20T00:02:26;102026.59;;;16.04;53.61
16580;BME280;8402;51.466;6.806;2023-05-20T00:04:56;102017.72;;;15.98;53.10
16580;BME280;8402;51.466;6.806;2023-05-20T00:07:26;102016.56;;;15.90;53.62
16580;BME280;8402;51.466;6.806;2023-05-20T00:09:56;102009.31;;;15.86;53.43
16580;BME280;8402;51.466;6.806;2023-05-20T00:12:26;102020.91;;;15.83;53.36
16580;BME280;8402;51.466;6.806;2023-05-20T00:14:56;102018.31;;;15.78;53.38
16580;BME280;8402;51.466;6.806;2023-05-20T00:17:29;102015.72;;;15.73;54.12
16580;BME280;8402;51.466;6.806;2023-05-20T00:19:59;102014.94;;;15.72;53.91
16580;BME280;8402;51.466;6.806;2023-05-20T00:22:31;102017.00;;;15.75;54.11
16580;BME280;8402;51.466;6.806;2023-05-20T00:25:02;102024.91;;;15.77;53.97
16580;BME280;8402;51.466;6.806;2023-05-20T00:27:32;102017.50;;;15.77;54.53
16580;BME280;8402;51.466;6.806;2023-05-20T00:30:02;102022.16;;;15.77;54.54
16580;BME280;8402;51.466;6.806;2023-05-20T00:32:35;102022.16;;;15.77;54.46
16580;BME280;8402;51.466;6.806;2023-05-20T00:35:06;102019.09;;;15.69;54.50
16580;BME280;8402;51.466;6.806;2023-05-20T00:37:37;102012.31;;;15.67;54.85
16580;BME280;8402;51.466;6.806;2023-05-20T00:40:08;102017.63;;;15.63;54.86
16580;BME280;8402;51.466;6.806;2023-05-20T00:42:41;102015.00;;;15.58;54.67
16580;BME280;8402;51.466;6.806;2023-05-20T00:45:11;102019.69;;;15.58;55.00
16580;BME280;8402;51.466;6.806;2023-05-20T00:47:44;102017.94;;;15.62;55.10
16580;BME280;8402;51.466;6.806;2023-05-20T00:50:16;102018.22;;;15.60;55.18
16580;BME280;8402;51.466;6.806;2023-05-20T00:52:46;102018.88;;;15.57;55.26
16580;BME280;8402;51.466;6.806;2023-05-20T00:55:17;102021.75;;;15.52;55.58
16580;BME280;8402;51.466;6.806;2023-05-20T00:57:48;102020.13;;;15.51;55.67
16580;BME280;8402;51.466;6.806;2023-05-20T01:00:18;102022.34;;;15.49;55.68
16580;BME280;8402;51.466;6.806;2023-05-20T01:02:51;102021.56;;;15.49;55.95
16580;BME280;8402;51.466;6.806;2023-05-20T01:05:21;102014.78;;;15.46;56.06
16580;BME280;8402;51.466;6.806;2023-05-20T01:07:52;102013.19;;;15.45;56.23
16580;BME280;8402;51.466;6.806;2023-05-20T01:10:24;102017.19;;;15.39;56.33
16580;BME280;8402;51.466;6.806;2023-05-20T01:13:00;102011.53;;;15.35;56.98
16580;BME280;8402;51.466;6.806;2023-05-20T01:15:34;102015.22;;;15.31;56.32
16580;BME280;8402;51.466;6.806;2023-05-20T01:18:08;102017.47;;;15.29;56.99
16580;BME280;8402;51.466;6.806;2023-05-20T01:20:39;102021.47;;;15.23;56.39
16580;BME280;8402;51.466;6.806;2023-05-20T01:23:14;102019.97;;;15.17;57.02
16580;BME280;8402;51.466;6.806;2023-05-20T01:25:44;102014.75;;;15.06;56.86
16580;BME280;8402;51.466;6.806;2023-05-20T01:28:14;102015.03;;;14.96;56.96
16580;BME280;8402;51.466;6.806;2023-05-20T01:30:50;102012.25;;;14.88;57.71
16580;BME280;8402;51.466;6.806;2023-05-20T01:33:23;102013.97;;;14.83;58.14
16580;BME280;8402;51.466;6.806;2023-05-20T01:35:54;102015.91;;;14.83;57.74
16580;BME280;8402;51.466;6.806;2023-05-20T01:38:28;102010.94;;;14.85;57.85
16580;BME280;8402;51.466;6.806;2023-05-20T01:40:59;102007.41;;;14.84;57.38
16580;BME280;8402;51.466;6.806;2023-05-20T01:43:31;102006.09;;;14.82;57.39
16580;BME280;8402;51.466;6.806;2023-05-20T01:46:05;102009.47;;;14.79;57.56
16580;BME280;8402;51.466;6.806;2023-05-20T01:48:35;102009.47;;;14.79;57.54
16580;BME280;8402;51.466;6.806;2023-05-20T01:51:05;102004.59;;;14.76;57.96
16580;BME280;8402;51.466;6.806;2023-05-20T01:53:38;102006.06;;;14.73;58.18
16580;BME280;8402;51.466;6.806;2023-05-20T01:56:08;102007.47;;;14.71;58.16
16580;BME280;8402;51.466;6.806;2023-05-20T01:58:38;102003.44;;;14.68;58.57
16580;BME280;8402;51.466;6.806;2023-05-20T02:01:08;102003.25;;;14.65;58.61
16580;BME280;8402;51.466;6.806;2023-05-20T02:03:38;102003.97;;;14.56;58.59
16580;BME280;8402;51.466;6.806;2023-05-20T02:06:07;102000.69;;;14.46;58.95
16580;BME280;8402;51.466;6.806;2023-05-20T02:08:40;102000.47;;;14.42;59.86
16580;BME280;8402;51.466;6.806;2023-05-20T02:11:10;101989.97;;;14.36;59.61
16580;BME280;8402;51.466;6.806;2023-05-20T02:13:40;101995.25;;;14.32;59.63
16580;BME280;8402;51.466;6.806;2023-05-20T02:16:10;101993.66;;;14.31;59.51
16580;BME280;8402;51.466;6.806;2023-05-20T02:18:40;101994.13;;;14.33;59.58
16580;BME280;8402;51.466;6.806;2023-05-20T02:21:11;101990.44;;;14.29;59.77
16580;BME280;8402;51.466;6.806;2023-05-20T02:23:43;101993.56;;;14.22;59.76
16580;BME280;8402;51.466;6.806;2023-05-20T02:26:13;101996.91;;;14.19;59.90
16580;BME280;8402;51.466;6.806;2023-05-20T02:28:44;101996.09;;;14.19;59.94
16580;BME280;8402;51.466;6.806;2023-05-20T02:31:16;101996.09;;;14.19;60.19
16580;BME280;8402;51.466;6.806;2023-05-20T02:33:47;101995.94;;;14.15;60.15
16580;BME280;8402;51.466;6.806;2023-05-20T02:36:20;101995.94;;;14.15;60.47
16580;BME280;8402;51.466;6.806;2023-05-20T02:38:52;101998.34;;;14.17;60.56
16580;BME280;8402;51.466;6.806;2023-05-20T02:41:23;101995.13;;;14.15;60.36
16580;BME280;8402;51.466;6.806;2023-05-20T02:43:53;101982.06;;;14.12;60.58
16580;BME280;8402;51.466;6.806;2023-05-20T02:46:23;101987.84;;;14.10;60.59
16580;BME280;8402;51.466;6.806;2023-05-20T02:48:53;101982.16;;;14.07;61.00
16580;BME280;8402;51.466;6.806;2023-05-20T02:51:24;101988.44;;;14.07;61.46
16580;BME280;8402;51.466;6.806;2023-05-20T02:53:57;101981.56;;;14.10;61.56
16580;BME280;8402;51.466;6.806;2023-05-20T02:56:27;101979.66;;;14.10;61.39
16580;BME280;8402;51.466;6.806;2023-05-20T02:58:58;101988.66;;;14.11;61.53
16580;BME280;8402;51.466;6.806;2023-05-20T03:01:29;101982.06;;;14.12;61.23
16580;BME280;8402;51.466;6.806;2023-05-20T03:03:59;101979.34;;;14.12;61.28
16580;BME280;8402;51.466;6.806;2023-05-20T03:06:30;101976.94;;;14.10;61.26
16580;BME280;8402;51.466;6.806;2023-05-20T03:09:03;101970.28;;;14.02;61.80
16580;BME280;8402;51.466;6.806;2023-05-20T03:11:33;101970.38;;;13.97;62.09
16580;BME280;8402;51.466;6.806;2023-05-20T03:14:03;101971.50;;;13.96;62.47
16580;BME280;8402;51.466;6.806;2023-05-20T03:16:33;101972.63;;;13.95;62.68
16580;BME280;8402;51.466;6.806;2023-05-20T03:19:03;101973.72;;;13.94;62.79
16580;BME280;8402;51.466;6.806;2023-05-20T03:21:33;101978.66;;;13.92;62.90
16580;BME280;8402;51.466;6.806;2023-05-20T03:24:06;101978.19;;;13.90;63.15
16580;BME280;8402;51.466;6.806;2023-05-20T03:26:36;101980.41;;;13.88;63.24
16580;BME280;8402;51.466;6.806;2023-05-20T03:29:09;101977.47;;;13.85;63.34
16580;BME280;8402;51.466;6.806;2023-05-20T03:31:39;101985.16;;;13.83;63.52
16580;BME280;8402;51.466;6.806;2023-05-20T03:34:09;101985.47;;;13.81;63.55
16580;BME280;8402;51.466;6.806;2023-05-20T03:36:39;101980.63;;;13.78;63.54
16580;BME280;8402;51.466;6.806;2023-05-20T03:39:12;101978.41;;;13.80;63.87
16580;BME280;8402;51.466;6.806;2023-05-20T03:41:42;101973.75;;;13.81;63.74
16580;BME280;8402;51.466;6.806;2023-05-20T03:44:12;101969.28;;;13.85;63.51
16580;BME280;8402;51.466;6.806;2023-05-20T03:46:43;101965.44;;;13.86;64.20
16580;BME280;8402;51.466;6.806;2023-05-20T03:49:13;101965.75;;;13.84;63.79
16580;BME280;8402;51.466;6.806;2023-05-20T03:51:43;101967.50;;;13.80;64.63
16580;BME280;8402;51.466;6.806;2023-05-20T03:54:16;101955.47;;;13.81;64.70
16580;BME280;8402;51.466;6.806;2023-05-20T03:56:47;101964.88;;;13.75;65.44
16580;BME280;8402;51.466;6.806;2023-05-20T03:59:17;101952.13;;;13.70;64.73
16580;BME280;8402;51.466;6.806;2023-05-20T04:01:48;101955.78;;;13.66;64.99
16580;BME280;8402;51.466;6.806;2023-05-20T04:04:18;101950.34;;;13.66;65.08
16580;BME280;8402;51.466;6.806;2023-05-20T04:06:48;101961.25;;;13.66;65.01
16580;BME280;8402;51.466;6.806;2023-05-20T04:09:21;101955.78;;;13.66;66.51
16580;BME280;8402;51.466;6.806;2023-05-20T04:11:51;101949.00;;;13.63;65.17
16580;BME280;8402;51.466;6.806;2023-05-20T04:14:21;101948.81;;;13.60;65.84
16580;BME280;8402;51.466;6.806;2023-05-20T04:16:51;101948.81;;;13.60;65.70
16580;BME280;8402;51.466;6.806;2023-05-20T04:19:23;101958.94;;;13.59;65.91
16580;BME280;8402;51.466;6.806;2023-05-20T04:21:55;101962.25;;;13.56;66.56
16580;BME280;8402;51.466;6.806;2023-05-20T04:24:27;101965.28;;;13.55;66.61
16580;BME280;8402;51.466;6.806;2023-05-20T04:26:57;101972.34;;;13.56;66.72
16580;BME280;8402;51.466;6.806;2023-05-20T04:29:28;101973.47;;;13.55;66.72
16580;BME280;8402;51.466;6.806;2023-05-20T04:32:00;101970.16;;;13.58;66.80
16580;BME280;8402;51.466;6.806;2023-05-20T04:34:30;101967.91;;;13.60;66.47
16580;BME280;8402;51.466;6.806;2023-05-20T04:37:01;101963.59;;;13.59;66.72
16580;BME280;8402;51.466;6.806;2023-05-20T04:39:36;101965.19;;;13.60;67.19
16580;BME280;8402;51.466;6.806;2023-05-20T04:42:07;101967.13;;;13.59;67.01
16580;BME280;8402;51.466;6.806;2023-05-20T04:44:37;101968.50;;;13.57;67.61
16580;BME280;8402;51.466;6.806;2023-05-20T04:47:08;101970.16;;;13.58;67.51
16580;BME280;8402;51.466;6.806;2023-05-20T04:49:38;101977.22;;;13.59;67.92
16580;BME280;8402;51.466;6.806;2023-05-20T04:52:08;101980.44;;;13.61;67.51
16580;BME280;8402;51.466;6.806;2023-05-20T04:54:40;101968.91;;;13.64;67.32
16580;BME280;8402;51.466;6.806;2023-05-20T04:57:10;101959.03;;;13.68;67.27
16580;BME280;8402;51.466;6.806;2023-05-20T04:59:40;101963.03;;;13.70;67.20
16580;BME280;8402;51.466;6.806;2023-05-20T05:02:11;101963.84;;;13.71;67.11
16580;BME280;8402;51.466;6.806;2023-05-20T05:04:41;101967.91;;;13.73;67.13
16580;BME280;8402;51.466;6.806;2023-05-20T05:07:11;101964.06;;;13.74;67.04
16580;BME280;8402;51.466;6.806;2023-05-20T05:09:44;101962.13;;;13.75;67.17
16580;BME280;8402;51.466;6.806;2023-05-20T05:12:14;101959.91;;;13.77;66.99
16580;BME280;8402;51.466;6.806;2023-05-20T05:14:44;101954.97;;;13.79;66.83
16580;BME280;8402;51.466;6.806;2023-05-20T05:17:14;101958.19;;;13.81;67.04
16580;BME280;8402;51.466;6.806;2023-05-20T05:19:44;101954.03;;;13.84;67.18
16580;BME280;8402;51.466;6.806;2023-05-20T05:22:14;101949.38;;;13.84;67.36
16580;BME280;8402;51.466;6.806;2023-05-20T05:24:47;101949.91;;;13.86;67.98
16580;BME280;8402;51.466;6.806;2023-05-20T05:27:17;101943.34;;;13.87;67.16
16580;BME280;8402;51.466;6.806;2023-05-20T05:29:49;101942.22;;;13.88;67.77
16580;BME280;8402;51.466;6.806;2023-05-20T05:32:19;101943.81;;;13.89;67.55
16580;BME280;8402;51.466;6.806;2023-05-20T05:34:49;101939.66;;;13.92;68.01
16580;BME280;8402;51.466;6.806;2023-05-20T05:37:19;101941.00;;;13.94;67.76
16580;BME280;8402;51.466;6.806;2023-05-20T05:39:52;101935.91;;;14.01;67.73
16580;BME280;8402;51.466;6.806;2023-05-20T05:42:22;101947.81;;;14.05;68.12
16580;BME280;8402;51.466;6.806;2023-05-20T05:44:51;101935.66;;;14.12;67.59
16580;BME280;8402;51.466;6.806;2023-05-20T05:47:22;101937.47;;;14.16;67.86
16580;BME280;8402;51.466;6.806;2023-05-20T05:49:55;101931.59;;;14.23;67.71
16580;BME280;8402;51.466;6.806;2023-05-20T05:52:26;101931.97;;;14.30;67.36
16580;BME280;8402;51.466;6.806;2023-05-20T05:54:58;101922.84;;;14.35;67.91
16580;BME280;8402;51.466;6.806;2023-05-20T05:57:28;101932.84;;;14.39;67.93
16580;BME280;8402;51.466;6.806;2023-05-20T05:59:59;101927.25;;;14.44;67.39
16580;BME280;8402;51.466;6.806;2023-05-20T06:02:30;101928.56;;;14.47;68.49
16580;BME280;8402;51.466;6.806;2023-05-20T06:05:02;101937.94;;;14.54;67.43
16580;BME280;8402;51.466;6.806;2023-05-20T06:07:32;101928.50;;;14.61;67.01
16580;BME280;8402;51.466;6.806;2023-05-20T06:10:06;101921.31;;;14.65;67.26
16580;BME280;8402;51.466;6.806;2023-05-20T06:12:36;101925.50;;;14.71;67.12
16580;BME280;8402;51.466;6.806;2023-05-20T06:15:07;101922.66;;;14.76;67.09
16580;BME280;8402;51.466;6.806;2023-05-20T06:17:38;101915.94;;;14.82;67.14
16580;BME280;8402;51.466;6.806;2023-05-20T06:20:09;101911.81;;;14.93;67.29
16580;BME280;8402;51.466;6.806;2023-05-20T06:22:39;101919.59;;;15.08;66.69
16580;BME280;8402;51.466;6.806;2023-05-20T06:25:13;101917.38;;;15.28;66.73
16580;BME280;8402;51.466;6.806;2023-05-20T06:27:43;101914.06;;;15.48;65.84
16580;BME280;8402;51.466;6.806;2023-05-20T06:30:13;101906.28;;;15.73;65.16
16580;BME280;8402;51.466;6.806;2023-05-20T06:32:44;101905.00;;;15.96;64.66
16580;BME280;8402;51.466;6.806;2023-05-20T06:35:15;101902.88;;;16.28;64.04
16580;BME280;8402;51.466;6.806;2023-05-20T06:37:45;101902.50;;;16.55;63.50
16580;BME280;8402;51.466;6.806;2023-05-20T06:40:18;101901.84;;;16.75;62.56
16580;BME280;8402;51.466;6.806;2023-05-20T06:42:47;101891.00;;;16.88;62.12
16580;BME280;8402;51.466;6.806;2023-05-20T06:45:17;101897.06;;;17.02;62.19
16580;BME280;8402;51.466;6.806;2023-05-20T06:47:47;101889.22;;;17.21;61.65
16580;BME280;8402;51.466;6.806;2023-05-20T06:50:20;101885.13;;;17.36;61.31
16580;BME280;8402;51.466;6.806;2023-05-20T06:52:51;101885.28;;;17.60;61.23
16580;BME280;8402;51.466;6.806;2023-05-20T06:55:23;101878.22;;;17.80;60.35
16580;BME280;8402;51.466;6.806;2023-05-20T06:57:53;101888.13;;;17.94;60.22
16580;BME280;8402;51.466;6.806;2023-05-20T07:00:24;101883.28;;;17.91;59.34
16580;BME280;8402;51.466;6.806;2023-05-20T07:02:54;101875.47;;;18.13;59.69
16580;BME280;8402;51.466;6.806;2023-05-20T07:05:23;101873.84;;;18.33;59.25
16580;BME280;8402;51.466;6.806;2023-05-20T07:07:54;101874.88;;;18.41;57.77
16580;BME280;8402;51.466;6.806;2023-05-20T07:10:28;101873.22;;;18.61;58.29
16580;BME280;8402;51.466;6.806;2023-05-20T07:12:58;101871.19;;;18.70;57.93
16580;BME280;8402;51.466;6.806;2023-05-20T07:15:29;101882.56;;;18.48;57.45
16580;BME280;8402;51.466;6.806;2023-05-20T07:17:59;101877.59;;;18.29;57.87
16580;BME280;8402;51.466;6.806;2023-05-20T07:20:29;101873.22;;;18.15;57.70
16580;BME280;8402;51.466;6.806;2023-05-20T07:23:00;101878.56;;;18.12;58.17
16580;BME280;8402;51.466;6.806;2023-05-20T07:25:32;101882.34;;;18.07;58.26
16580;BME280;8402;51.466;6.806;2023-05-20T07:28:03;101876.03;;;18.07;58.42
16580;BME280;8402;51.466;6.806;2023-05-20T07:30:33;101870.53;;;18.07;58.62
16580;BME280;8402;51.466;6.806;2023-05-20T07:33:03;101847.22;;;18.13;58.38
16580;BME280;8402;51.466;6.806;2023-05-20T07:35:33;101868.53;;;18.16;58.41
16580;BME280;8402;51.466;6.806;2023-05-20T07:38:03;101858.84;;;18.31;58.70
16580;BME280;8402;51.466;6.806;2023-05-20T07:40:36;101855.88;;;18.36;58.39
16580;BME280;8402;51.466;6.806;2023-05-20T07:43:06;101851.91;;;18.46;58.26
16580;BME280;8402;51.466;6.806;2023-05-20T07:45:36;101858.78;;;18.52;57.93
16580;BME280;8402;51.466;6.806;2023-05-20T07:48:10;101851.09;;;18.57;57.66
16580;BME280;8402;51.466;6.806;2023-05-20T07:50:40;101854.59;;;18.66;58.12
16580;BME280;8402;51.466;6.806;2023-05-20T07:53:10;101849.19;;;18.70;57.71
16580;BME280;8402;51.466;6.806;2023-05-20T07:55:44;101846.25;;;18.75;57.73
16580;BME280;8402;51.466;6.806;2023-05-20T07:58:14;101852.91;;;18.86;57.77
16580;BME280;8402;51.466;6.806;2023-05-20T08:00:44;101849.44;;;18.89;56.92
16580;BME280;8402;51.466;6.806;2023-05-20T08:03:14;101851.50;;;18.92;56.77
16580;BME280;8402;51.466;6.806;2023-05-20T08:05:45;101847.72;;;18.97;57.04
16580;BME280;8402;51.466;6.806;2023-05-20T08:08:15;101843.25;;;19.05;57.02
16580;BME280;8402;51.466;6.806;2023-05-20T08:10:50;101851.84;;;19.03;56.80
16580;BME280;8402;51.466;6.806;2023-05-20T08:13:20;101850.13;;;19.11;57.02
16580;BME280;8402;51.466;6.806;2023-05-20T08:15:51;101859.31;;;19.15;57.12
16580;BME280;8402;51.466;6.806;2023-05-20T08:18:22;101850.81;;;19.20;57.18
16580;BME280;8402;51.466;6.806;2023-05-20T08:20:53;101839.34;;;19.30;56.87
16580;BME280;8402;51.466;6.806;2023-05-20T08:23:23;101840.38;;;19.25;56.25
16580;BME280;8402;51.466;6.806;2023-05-20T08:25:56;101838.19;;;19.19;55.94
16580;BME280;8402;51.466;6.806;2023-05-20T08:28:28;101841.31;;;19.17;56.14
16580;BME280;8402;51.466;6.806;2023-05-20T08:31:00;101841.19;;;19.14;56.02
16580;BME280;8402;51.466;6.806;2023-05-20T08:33:30;101838.41;;;19.26;56.84
16580;BME280;8402;51.466;6.806;2023-05-20T08:36:00;101837.25;;;19.39;56.57
16580;BME280;8402;51.466;6.806;2023-05-20T08:38:33;101837.69;;;19.53;56.46
16580;BME280;8402;51.466;6.806;2023-05-20T08:41:06;101838.72;;;19.61;56.40
16580;BME280;8402;51.466;6.806;2023-05-20T08:43:36;101834.94;;;19.66;55.90
16580;BME280;8402;51.466;6.806;2023-05-20T08:46:06;101837.41;;;19.71;56.27
16580;BME280;8402;51.466;6.806;2023-05-20T08:48:38;101840.06;;;19.79;55.81
16580;BME280;8402;51.466;6.806;2023-05-20T08:51:09;101836.69;;;19.86;55.42
16580;BME280;8402;51.466;6.806;2023-05-20T08:53:40;101828.44;;;19.86;55.17
16580;BME280;8402;51.466;6.806;2023-05-20T08:56:13;101840.13;;;19.83;54.87
16580;BME280;8402;51.466;6.806;2023-05-20T08:58:44;101828.31;;;19.83;55.14
16580;BME280;8402;51.466;6.806;2023-05-20T09:01:15;101827.47;;;19.94;55.03
16580;BME280;8402;51.466;6.806;2023-05-20T09:03:45;101837.72;;;20.10;55.30
16580;BME280;8402;51.466;6.806;2023-05-20T09:06:16;101832.41;;;20.17;54.93
16580;BME280;8402;51.466;6.806;2023-05-20T09:08:48;101837.22;;;20.20;54.87
16580;BME280;8402;51.466;6.806;2023-05-20T09:11:21;101834.38;;;20.16;53.71
16580;BME280;8402;51.466;6.806;2023-05-20T09:13:51;101833.09;;;20.14;54.44
16580;BME280;8402;51.466;6.806;2023-05-20T09:16:22;101834.34;;;20.00;54.10
16580;BME280;8402;51.466;6.806;2023-05-20T09:18:55;101829.03;;;20.08;54.50
16580;BME280;8402;51.466;6.806;2023-05-20T09:21:25;101829.66;;;20.17;54.74
16580;BME280;8402;51.466;6.806;2023-05-20T09:23:56;101834.28;;;20.28;54.63
16580;BME280;8402;51.466;6.806;2023-05-20T09:26:29;101838.06;;;20.36;54.31
16580;BME280;8402;51.466;6.806;2023-05-20T09:28:59;101836.63;;;20.42;55.00
16580;BME280;8402;51.466;6.806;2023-05-20T09:31:30;101833.19;;;20.45;54.40
16580;BME280;8402;51.466;6.806;2023-05-20T09:34:01;101831.78;;;20.51;54.35
16580;BME280;8402;51.466;6.806;2023-05-20T09:36:33;101817.88;;;20.64;54.13
16580;BME280;8402;51.466;6.806;2023-05-20T09:39:06;101829.00;;;20.67;53.76
16580;BME280;8402;51.466;6.806;2023-05-20T09:41:47;101844.66;;;20.63;53.90
16580;BME280;8402;51.466;6.806;2023-05-20T09:44:20;101838.53;;;20.70;53.43
16580;BME280;8402;51.466;6.806;2023-05-20T09:46:51;101834.09;;;20.81;53.43
16580;BME280;8402;51.466;6.806;2023-05-20T09:49:22;101841.38;;;20.89;53.49
16580;BME280;8402;51.466;6.806;2023-05-20T09:51:54;101836.03;;;20.96;52.56
16580;BME280;8402;51.466;6.806;2023-05-20T09:54:26;101849.00;;;20.96;52.80
16580;BME280;8402;51.466;6.806;2023-05-20T09:57:00;101828.19;;;20.98;52.82
16580;BME280;8402;51.466;6.806;2023-05-20T09:59:32;101841.53;;;20.96;52.72
16580;BME280;8402;51.466;6.806;2023-05-20T10:02:05;101827.84;;;20.84;52.58
16580;BME280;8402;51.466;6.806;2023-05-20T10:04:37;101822.63;;;20.79;52.35
16580;BME280;8402;51.466;6.806;2023-05-20T10:07:32;101827.66;;;20.77;52.49
16580;BME280;8402;51.466;6.806;2023-05-20T10:10:17;101821.28;;;20.73;52.51
16580;BME280;8402;51.466;6.806;2023-05-20T10:13:01;101823.41;;;20.64;52.44
16580;BME280;8402;51.466;6.806;2023-05-20T10:15:44;101821.97;;;20.70;52.62
16580;BME280;8402;51.466;6.806;2023-05-20T10:18:29;101824.47;;;20.75;52.76
16580;BME280;8402;51.466;6.806;2023-05-20T10:21:02;101815.47;;;20.94;52.85
16580;BME280;8402;51.466;6.806;2023-05-20T10:23:35;101810.75;;;20.94;52.75
16580;BME280;8402;51.466;6.806;2023-05-20T10:26:06;101810.59;;;20.87;52.34
16580;BME280;8402;51.466;6.806;2023-05-20T10:28:40;101812.19;;;20.88;52.28
16580;BME280;8402;51.466;6.806;2023-05-20T10:31:20;101804.00;;;20.76;52.44
16580;BME280;8402;51.466;6.806;2023-05-20T10:33:52;101800.00;;;20.73;53.17
16580;BME280;8402;51.466;6.806;2023-05-20T10:36:24;101800.53;;;20.63;52.60
16580;BME280;8402;51.466;6.806;2023-05-20T10:38:57;101809.91;;;20.58;52.92
16580;BME280;8402;51.466;6.806;2023-05-20T10:41:29;101805.72;;;20.65;53.22
16580;BME280;8402;51.466;6.806;2023-05-20T10:44:04;101811.47;;;20.75;53.11
16580;BME280;8402;51.466;6.806;2023-05-20T10:46:35;101798.66;;;20.83;53.02
16580;BME280;8402;51.466;6.806;2023-05-20T10:49:32;101804.72;;;20.73;52.40
16580;BME280;8402;51.466;6.806;2023-05-20T10:52:05;101794.03;;;20.87;52.95
16580;BME280;8402;51.466;6.806;2023-05-20T10:54:37;101787.06;;;20.93;53.46
16580;BME280;8402;51.466;6.806;2023-05-20T10:57:11;101788.16;;;20.88;52.60
16580;BME280;8402;51.466;6.806;2023-05-20T10:59:44;101796.63;;;20.80;52.43
16580;BME280;8402;51.466;6.806;2023-05-20T11:02:15;101789.94;;;20.81;53.31
16580;BME280;8402;51.466;6.806;2023-05-20T11:04:45;101786.19;;;20.89;53.03
16580;BME280;8402;51.466;6.806;2023-05-20T11:07:25;101787.72;;;20.86;52.92
16580;BME280;8402;51.466;6.806;2023-05-20T11:09:56;101775.44;;;20.84;53.08
16580;BME280;8402;51.466;6.806;2023-05-20T11:12:27;101785.13;;;20.94;53.62
16580;BME280;8402;51.466;6.806;2023-05-20T11:15:02;101795.06;;;20.98;52.94
16580;BME280;8402;51.466;6.806;2023-05-20T11:17:32;101780.91;;;21.00;53.02
16580;BME280;8402;51.466;6.806;2023-05-20T11:20:03;101785.63;;;20.99;53.33
16580;BME280;8402;51.466;6.806;2023-05-20T11:22:33;101782.59;;;21.04;53.63
16580;BME280;8402;51.466;6.806;2023-05-20T11:25:04;101769.53;;;21.01;53.15
16580;BME280;8402;51.466;6.806;2023-05-20T11:27:38;101772.50;;;21.12;53.09
16580;BME280;8402;51.466;6.806;2023-05-20T11:30:11;101772.59;;;21.15;52.91
16580;BME280;8402;51.466;6.806;2023-05-20T11:32:43;101781.81;;;21.04;53.31
16580;BME280;8402;51.466;6.806;2023-05-20T11:35:21;101772.34;;;21.05;53.42
16580;BME280;8402;51.466;6.806;2023-05-20T11:37:55;101773.31;;;21.12;53.38
16580;BME280;8402;51.466;6.806;2023-05-20T11:40:26;101767.50;;;21.17;53.13
16580;BME280;8402;51.466;6.806;2023-05-20T11:43:13;101768.59;;;21.13;52.68
16580;BME280;8402;51.466;6.806;2023-05-20T11:45:47;101768.97;;;21.11;53.04
16580;BME280;8402;51.466;6.806;2023-05-20T11:48:21;101755.31;;;21.19;53.13
16580;BME280;8402;51.466;6.806;2023-05-20T11:50:52;101752.16;;;21.36;53.35
16580;BME280;8402;51.466;6.806;2023-05-20T11:53:24;101753.59;;;21.49;53.05
16580;BME280;8402;51.466;6.806;2023-05-20T11:55:56;101744.75;;;21.59;52.85
16580;BME280;8402;51.466;6.806;2023-05-20T11:58:29;101728.88;;;21.76;52.90
16580;BME280;8402;51.466;6.806;2023-05-20T12:01:02;101728.38;;;21.93;52.82
16580;BME280;8402;51.466;6.806;2023-05-20T12:03:47;101707.94;;;21.97;52.46
16580;BME280;8402;51.466;6.806;2023-05-20T12:06:18;101713.56;;;22.01;52.25
16580;BME280;8402;51.466;6.806;2023-05-20T12:08:48;101714.41;;;22.05;52.40
16580;BME280;8402;51.466;6.806;2023-05-20T12:11:18;101706.78;;;22.21;52.93
16580;BME280;8402;51.466;6.806;2023-05-20T12:13:49;101708.53;;;22.30;52.20
16580;BME280;8402;51.466;6.806;2023-05-20T12:16:24;101710.25;;;22.38;52.18
16580;BME280;8402;51.466;6.806;2023-05-20T12:18:55;101697.84;;;22.55;52.40
16580;BME280;8402;51.466;6.806;2023-05-20T12:21:25;101701.34;;;22.78;51.95
16580;BME280;8402;51.466;6.806;2023-05-20T12:23:55;101698.44;;;22.94;51.36
16580;BME280;8402;51.466;6.806;2023-05-20T12:26:27;101696.03;;;22.92;50.61
16580;BME280;8402;51.466;6.806;2023-05-20T12:28:58;101687.38;;;22.94;50.38
16580;BME280;8402;51.466;6.806;2023-05-20T12:31:32;101688.25;;;23.01;50.65
16580;BME280;8402;51.466;6.806;2023-05-20T12:34:09;101677.22;;;23.05;50.54
16580;BME280;8402;51.466;6.806;2023-05-20T12:36:40;101681.66;;;23.13;50.79
16580;BME280;8402;51.466;6.806;2023-05-20T12:39:10;101685.59;;;23.12;50.59
16580;BME280;8402;51.466;6.806;2023-05-20T12:41:41;101677.38;;;23.19;50.49
16580;BME280;8402;51.466;6.806;2023-05-20T12:44:14;101666.88;;;23.35;50.26
16580;BME280;8402;51.466;6.806;2023-05-20T12:46:47;101670.59;;;23.50;50.82
16580;BME280;8402;51.466;6.806;2023-05-20T12:49:17;101671.91;;;23.60;50.97
16580;BME280;8402;51.466;6.806;2023-05-20T12:51:47;101660.59;;;23.72;50.31
16580;BME280;8402;51.466;6.806;2023-05-20T12:54:17;101668.06;;;23.72;50.21
16580;BME280;8402;51.466;6.806;2023-05-20T12:56:47;101670.03;;;23.68;49.81
16580;BME280;8402;51.466;6.806;2023-05-20T12:59:17;101662.13;;;23.70;49.46
16580;BME280;8402;51.466;6.806;2023-05-20T13:01:49;101664.56;;;23.78;49.09
16580;BME280;8402;51.466;6.806;2023-05-20T13:04:19;101673.44;;;23.95;49.27
16580;BME280;8402;51.466;6.806;2023-05-20T13:06:53;101673.47;;;23.98;48.84
16580;BME280;8402;51.466;6.806;2023-05-20T13:09:23;101673.91;;;24.04;48.47
16580;BME280;8402;51.466;6.806;2023-05-20T13:11:53;101659.81;;;24.23;48.96
16580;BME280;8402;51.466;6.806;2023-05-20T13:14:23;101665.78;;;24.29;48.18
16580;BME280;8402;51.466;6.806;2023-05-20T13:16:59;101651.53;;;24.30;46.79
16580;BME280;8402;51.466;6.806;2023-05-20T13:19:29;101655.63;;;24.43;47.56
16580;BME280;8402;51.466;6.806;2023-05-20T13:21:59;101653.66;;;24.44;47.36
16580;BME280;8402;51.466;6.806;2023-05-20T13:24:29;101653.66;;;24.48;47.68